Time;durP1;ratioP1;P1;durP2;ratioP2;P2;SDS_P1;SDS_P2;PMS_P1;PMS_P2;Temp;Humidity;BMP_temperature;BMP_pressure;BME280_temperature;BME280_humidity;BME280_pressure;Samples;Min_cycle;Max_cycle;Signal;HPM_P1;HPM_P2
2022/02/21 00:00:17;;;;;;;14.45;9.13;;;7.50;59.80;;;;;;5072417;28;20028;-64
2022/02/21 00:02:45;;;;;;;12.73;8.98;;;7.40;59.80;;;;;;5072063;28;20021;-64
2022/02/21 00:05:14;;;;;;;15.18;9.68;;;7.40;59.90;;;;;;5085362;28;20430;-64
2022/02/21 00:07:40;;;;;;;13.65;9.27;;;7.40;59.90;;;;;;5092589;28;20024;-64
2022/02/21 00:10:07;;;;;;;14.55;8.73;;;7.40;60.00;;;;;;5092330;28;20023;-64
2022/02/21 00:12:34;;;;;;;11.77;8.93;;;7.40;59.80;;;;;;5084151;28;20075;-64
2022/02/21 00:15:00;;;;;;;13.13;9.15;;;7.40;60.00;;;;;;5087258;28;20024;-64
2022/02/21 00:17:25;;;;;;;11.93;9.27;;;7.40;59.90;;;;;;5081040;28;20097;-64
2022/02/21 00:19:51;;;;;;;13.52;8.95;;;7.40;60.00;;;;;;5072384;28;20040;-64
2022/02/21 00:22:17;;;;;;;13.98;9.77;;;7.40;60.20;;;;;;5073025;28;20029;-64
2022/02/21 00:24:42;;;;;;;13.48;9.20;;;7.50;60.20;;;;;;5072057;28;20074;-64
2022/02/21 00:27:08;;;;;;;13.93;9.70;;;7.50;60.20;;;;;;5071945;28;20028;-64
2022/02/21 00:29:34;;;;;;;15.60;9.35;;;7.50;60.20;;;;;;5072516;28;20052;-64
2022/02/21 00:31:59;;;;;;;11.30;8.95;;;7.50;60.10;;;;;;5071754;28;20028;-64
2022/02/21 00:34:25;;;;;;;11.55;9.10;;;7.50;60.10;;;;;;5071739;28;20052;-64
2022/02/21 00:36:52;;;;;;;12.32;9.32;;;7.50;60.10;;;;;;5071691;28;20044;-64
2022/02/21 00:39:17;;;;;;;12.52;9.57;;;7.50;60.00;;;;;;5082472;28;20027;-64
2022/02/21 00:41:43;;;;;;;11.93;9.15;;;7.50;59.90;;;;;;5088767;28;20021;-64
2022/02/21 00:44:09;;;;;;;11.68;8.63;;;7.50;59.90;;;;;;5075790;28;20095;-64
2022/02/21 00:46:34;;;;;;;13.50;8.85;;;7.50;59.90;;;;;;5080134;28;20058;-64
2022/02/21 00:49:01;;;;;;;15.27;10.07;;;7.50;60.00;;;;;;5075261;28;20020;-64
2022/02/21 00:51:27;;;;;;;14.15;9.70;;;7.50;60.10;;;;;;5075089;28;20126;-64
2022/02/21 00:53:53;;;;;;;14.20;10.00;;;7.50;60.30;;;;;;5075142;28;20049;-64
2022/02/21 00:56:18;;;;;;;12.88;9.73;;;7.50;60.00;;;;;;5075209;28;20032;-64
2022/02/21 00:58:44;;;;;;;12.85;9.20;;;7.50;60.20;;;;;;5075151;28;20032;-64
2022/02/21 01:01:10;;;;;;;12.63;10.40;;;7.50;60.00;;;;;;5074968;28;20067;-64
2022/02/21 01:03:35;;;;;;;13.75;10.75;;;7.50;60.20;;;;;;5075552;28;20027;-64
2022/02/21 01:06:01;;;;;;;14.55;10.38;;;7.50;59.90;;;;;;5074842;28;20032;-64
2022/02/21 01:08:27;;;;;;;16.08;10.48;;;7.40;59.90;;;;;;5075415;28;20021;-64
2022/02/21 01:10:52;;;;;;;14.85;10.57;;;7.40;60.00;;;;;;5074868;28;20020;-64
2022/02/21 01:13:18;;;;;;;13.70;10.35;;;7.30;60.00;;;;;;5079811;28;20077;-64
2022/02/21 01:15:44;;;;;;;13.60;9.68;;;7.20;60.30;;;;;;5093954;28;20361;-64
2022/02/21 01:18:09;;;;;;;14.32;9.40;;;7.10;60.10;;;;;;5094946;28;20388;-64
2022/02/21 01:20:35;;;;;;;15.00;10.35;;;7.10;60.20;;;;;;5087981;28;20023;-63
2022/02/21 01:23:01;;;;;;;12.70;9.15;;;7.00;60.30;;;;;;5088113;28;20107;-64
2022/02/21 01:25:27;;;;;;;13.98;9.30;;;7.00;60.50;;;;;;5074658;28;20050;-64
2022/02/21 01:27:53;;;;;;;13.38;9.27;;;6.90;60.60;;;;;;5074567;28;20016;-64
2022/02/21 01:30:19;;;;;;;15.98;9.30;;;6.80;60.70;;;;;;5074503;28;20099;-64
2022/02/21 01:32:44;;;;;;;13.93;10.15;;;6.80;60.70;;;;;;5074424;28;20485;-64
2022/02/21 01:35:10;;;;;;;14.35;9.48;;;6.80;60.70;;;;;;5074252;28;20048;-64
2022/02/21 01:37:36;;;;;;;11.73;8.75;;;6.80;60.80;;;;;;5080367;28;20028;-63
2022/02/21 01:40:07;;;;;;;13.10;8.98;;;6.80;60.80;;;;;;5094607;28;20063;-64
2022/02/21 01:42:33;;;;;;;14.13;8.55;;;6.80;61.00;;;;;;5075348;28;20029;-64
2022/02/21 01:44:59;;;;;;;11.90;8.50;;;6.80;60.80;;;;;;5086501;28;20036;-64
2022/02/21 01:47:24;;;;;;;14.27;9.07;;;6.80;60.90;;;;;;5094187;28;20035;-64
2022/02/21 01:49:50;;;;;;;11.30;8.60;;;6.80;60.90;;;;;;5083949;28;20059;-63
2022/02/21 01:52:18;;;;;;;13.45;7.95;;;6.80;61.00;;;;;;5073972;28;20104;-64
2022/02/21 01:54:44;;;;;;;13.45;8.50;;;6.90;61.00;;;;;;5083420;28;20016;-64
2022/02/21 01:57:10;;;;;;;12.45;8.30;;;6.90;61.20;;;;;;5077593;28;20132;-64
2022/02/21 01:59:37;;;;;;;11.02;7.72;;;6.90;61.30;;;;;;5074005;28;20025;-64
2022/02/21 02:02:04;;;;;;;9.40;7.25;;;6.90;61.40;;;;;;5073822;28;20024;-64
2022/02/21 02:04:30;;;;;;;12.32;7.55;;;6.90;61.50;;;;;;5073798;28;20025;-64
2022/02/21 02:06:57;;;;;;;11.35;7.57;;;6.90;61.50;;;;;;5073663;28;20468;-64
2022/02/21 02:09:22;;;;;;;11.07;7.57;;;7.00;61.60;;;;;;5073800;28;20016;-64
2022/02/21 02:11:48;;;;;;;11.50;6.88;;;7.00;61.80;;;;;;5074240;28;20491;-64
2022/02/21 02:14:30;;;;;;;12.20;7.82;;;7.00;61.60;;;;;;5086051;28;20488;-64
2022/02/21 02:17:01;;;;;;;10.48;7.07;;;7.10;61.60;;;;;;5093856;28;20463;-64
2022/02/21 02:19:26;;;;;;;12.67;7.90;;;7.10;61.60;;;;;;5080402;28;20024;-64
2022/02/21 02:21:55;;;;;;;12.15;8.10;;;7.10;61.60;;;;;;5080616;28;20021;-64
2022/02/21 02:24:22;;;;;;;11.63;7.72;;;7.20;61.60;;;;;;5073604;28;20484;-64
2022/02/21 02:26:52;;;;;;;11.13;7.90;;;7.20;61.50;;;;;;5073528;28;20476;-64
2022/02/21 02:29:18;;;;;;;13.75;8.55;;;7.20;61.50;;;;;;5074198;28;20047;-64
2022/02/21 02:31:43;;;;;;;12.13;7.40;;;7.20;61.40;;;;;;5073220;28;20024;-64
2022/02/21 02:34:09;;;;;;;10.57;7.72;;;7.20;61.50;;;;;;5073232;28;20079;-64
2022/02/21 02:36:35;;;;;;;11.38;7.70;;;7.10;61.50;;;;;;5073390;28;20036;-64
2022/02/21 02:39:00;;;;;;;11.27;7.55;;;7.10;61.60;;;;;;5073165;28;20146;-64
2022/02/21 02:41:26;;;;;;;12.20;7.63;;;7.10;61.70;;;;;;5073079;28;20107;-64
2022/02/21 02:43:52;;;;;;;11.95;8.30;;;7.00;61.80;;;;;;5081312;28;20020;-64
2022/02/21 02:46:17;;;;;;;10.75;7.78;;;6.90;61.90;;;;;;5078867;28;20044;-63
2022/02/21 02:48:43;;;;;;;13.02;8.20;;;6.90;62.00;;;;;;5072943;28;20020;-63
2022/02/21 02:51:08;;;;;;;11.90;9.00;;;6.90;62.40;;;;;;5091841;28;20099;-64
2022/02/21 02:53:34;;;;;;;14.57;9.00;;;6.80;62.20;;;;;;5076930;28;20060;-64
2022/02/21 02:56:00;;;;;;;14.48;8.57;;;6.80;62.40;;;;;;5072925;28;20028;-64
2022/02/21 02:58:26;;;;;;;12.02;9.27;;;6.80;62.50;;;;;;5072703;28;20031;-64
2022/02/21 03:00:51;;;;;;;13.48;9.32;;;6.80;62.80;;;;;;5072830;28;20075;-64
2022/02/21 03:03:17;;;;;;;11.48;8.45;;;6.80;62.70;;;;;;5086196;28;20085;-64
2022/02/21 03:05:43;;;;;;;12.20;8.40;;;6.80;62.90;;;;;;5072683;28;20115;-63
2022/02/21 03:08:09;;;;;;;13.88;8.45;;;6.70;62.80;;;;;;5073024;28;20472;-63
2022/02/21 03:10:34;;;;;;;11.27;8.30;;;6.70;63.00;;;;;;5092884;28;20388;-63
2022/02/21 03:13:00;;;;;;;10.38;8.20;;;6.70;63.30;;;;;;5090894;28;20012;-63
2022/02/21 03:15:26;;;;;;;10.63;7.95;;;6.60;63.60;;;;;;5092327;28;20062;-64
2022/02/21 03:17:52;;;;;;;11.30;7.63;;;6.60;63.60;;;;;;5092834;28;20032;-64
2022/02/21 03:20:18;;;;;;;13.80;9.23;;;6.50;63.90;;;;;;5081531;28;20020;-63
2022/02/21 03:22:44;;;;;;;14.23;10.20;;;6.50;63.80;;;;;;5084142;28;20585;-64
2022/02/21 03:25:13;;;;;;;15.93;10.75;;;6.50;64.10;;;;;;5087405;28;20030;-64
2022/02/21 03:27:43;;;;;;;14.27;10.98;;;6.40;64.20;;;;;;5084282;28;20461;-64
2022/02/21 03:30:10;;;;;;;14.45;10.77;;;6.40;64.10;;;;;;5072230;28;20031;-63
2022/02/21 03:32:36;;;;;;;15.77;10.50;;;6.30;64.20;;;;;;5072859;28;20032;-64
2022/02/21 03:35:02;;;;;;;12.80;10.23;;;6.30;64.50;;;;;;5072223;28;20055;-64
2022/02/21 03:37:28;;;;;;;12.93;9.55;;;6.20;64.60;;;;;;5055176;28;20039;-64
2022/02/21 03:39:53;;;;;;;12.80;9.75;;;6.20;64.60;;;;;;5072548;28;20020;-63
2022/02/21 03:42:19;;;;;;;13.68;9.20;;;6.10;64.90;;;;;;5073079;28;20036;-63
2022/02/21 03:44:45;;;;;;;11.80;8.88;;;6.00;65.00;;;;;;5082160;28;20032;-64
2022/02/21 03:47:10;;;;;;;13.55;9.68;;;6.00;65.00;;;;;;5089021;28;20056;-64
2022/02/21 03:49:36;;;;;;;13.45;9.23;;;6.00;65.40;;;;;;5092534;28;20106;-64
2022/02/21 03:52:01;;;;;;;14.93;8.52;;;5.90;65.30;;;;;;5092422;28;20024;-63
2022/02/21 03:54:27;;;;;;;13.43;9.27;;;5.90;65.60;;;;;;5077620;28;20031;-63
2022/02/21 03:56:53;;;;;;;12.05;9.18;;;5.90;65.60;;;;;;5090277;28;20058;-64
2022/02/21 03:59:18;;;;;;;12.60;9.63;;;5.90;65.90;;;;;;5072239;28;20025;-63
2022/02/21 04:01:44;;;;;;;15.40;11.05;;;5.90;65.80;;;;;;5088193;28;20472;-63
2022/02/21 04:04:10;;;;;;;17.60;11.65;;;5.80;65.50;;;;;;5092267;28;20028;-63
2022/02/21 04:06:35;;;;;;;16.45;11.70;;;5.80;65.70;;;;;;5092044;28;20028;-63
2022/02/21 04:09:01;;;;;;;16.48;12.40;;;5.80;65.80;;;;;;5092330;28;20028;-63
2022/02/21 04:11:27;;;;;;;15.60;12.20;;;5.80;65.60;;;;;;5079394;28;20066;-63
2022/02/21 04:13:53;;;;;;;17.90;12.77;;;5.80;65.70;;;;;;5085441;28;20058;-63
2022/02/21 04:16:18;;;;;;;20.45;13.40;;;5.80;65.90;;;;;;5083210;28;20020;-63
2022/02/21 04:18:44;;;;;;;22.00;14.90;;;5.80;65.70;;;;;;5081542;28;20032;-63
2022/02/21 04:21:10;;;;;;;25.35;15.77;;;5.70;65.80;;;;;;5085214;28;20025;-63
2022/02/21 04:23:36;;;;;;;24.90;17.25;;;5.70;65.80;;;;;;5075729;28;20106;-63
2022/02/21 04:26:01;;;;;;;26.33;18.83;;;5.70;65.80;;;;;;5086511;28;20063;-63
2022/02/21 04:28:27;;;;;;;25.27;18.08;;;5.70;65.80;;;;;;5080327;28;20033;-63
2022/02/21 04:30:53;;;;;;;25.55;18.48;;;5.70;66.20;;;;;;5075884;28;20103;-63
2022/02/21 04:33:18;;;;;;;27.15;18.00;;;5.70;66.10;;;;;;5075638;28;20492;-63
2022/02/21 04:35:44;;;;;;;21.88;16.25;;;5.60;66.10;;;;;;5075419;28;20554;-63
2022/02/21 04:38:12;;;;;;;23.33;16.17;;;5.60;66.30;;;;;;5075623;28;20108;-63
2022/02/21 04:40:38;;;;;;;17.90;14.10;;;5.60;66.30;;;;;;5075673;28;20091;-63
2022/02/21 04:43:03;;;;;;;17.45;12.57;;;5.50;66.30;;;;;;5090864;28;20388;-63
2022/02/21 04:45:29;;;;;;;19.10;13.68;;;5.50;66.50;;;;;;5079527;28;20020;-63
2022/02/21 04:47:55;;;;;;;17.38;12.40;;;5.50;66.40;;;;;;5094957;28;20070;-63
2022/02/21 04:50:21;;;;;;;18.77;12.70;;;5.50;66.60;;;;;;5095452;28;20494;-63
2022/02/21 04:52:47;;;;;;;17.58;12.15;;;5.50;66.60;;;;;;5095383;28;20050;-63
2022/02/21 04:55:13;;;;;;;17.08;11.85;;;5.50;66.80;;;;;;5083551;28;20075;-63
2022/02/21 04:57:40;;;;;;;15.88;12.38;;;5.50;66.90;;;;;;5075211;28;20392;-63
2022/02/21 05:00:09;;;;;;;18.15;12.38;;;5.50;66.80;;;;;;5075404;28;20028;-63
2022/02/21 05:02:35;;;;;;;14.75;11.52;;;5.50;66.80;;;;;;5085662;28;20051;-63
2022/02/21 05:05:00;;;;;;;16.60;12.65;;;5.50;66.70;;;;;;5082276;28;20028;-63
2022/02/21 05:07:26;;;;;;;16.30;11.40;;;5.50;67.10;;;;;;5074689;28;20021;-63
2022/02/21 05:09:52;;;;;;;20.83;13.57;;;5.40;67.00;;;;;;5085934;28;20376;-63
2022/02/21 05:12:17;;;;;;;18.05;12.85;;;5.40;66.90;;;;;;5094673;28;20050;-63
2022/02/21 05:14:43;;;;;;;22.05;14.35;;;5.50;67.00;;;;;;5088772;28;20021;-64
2022/02/21 05:17:09;;;;;;;21.88;14.10;;;5.50;67.00;;;;;;5074743;28;20068;-64
2022/02/21 05:19:34;;;;;;;25.33;15.98;;;5.50;67.10;;;;;;5075330;28;20029;-63
2022/02/21 05:22:00;;;;;;;30.67;18.85;;;5.50;67.00;;;;;;5081065;28;20071;-63
2022/02/21 05:24:26;;;;;;;27.23;17.42;;;5.50;67.10;;;;;;5074541;28;20021;-63
2022/02/21 05:26:52;;;;;;;27.98;18.35;;;5.50;67.20;;;;;;5074391;28;20033;-64
2022/02/21 05:29:18;;;;;;;31.08;20.13;;;5.60;67.10;;;;;;5074458;28;20020;-63
2022/02/21 05:31:44;;;;;;;33.35;19.40;;;5.60;67.30;;;;;;5074330;28;20032;-63
2022/02/21 05:34:10;;;;;;;23.00;16.13;;;5.60;67.20;;;;;;5074448;28;20101;-63
2022/02/21 05:36:35;;;;;;;23.35;15.27;;;5.60;67.10;;;;;;5074949;28;20028;-64
2022/02/21 05:39:02;;;;;;;24.35;16.35;;;5.70;67.10;;;;;;5074316;28;20027;-63
2022/02/21 05:41:27;;;;;;;23.30;15.65;;;5.70;66.80;;;;;;5083751;28;20040;-63
2022/02/21 05:43:53;;;;;;;22.60;16.05;;;5.80;67.00;;;;;;5089550;28;20039;-63
2022/02/21 05:46:19;;;;;;;24.65;15.40;;;5.80;66.80;;;;;;5094309;28;20020;-64
2022/02/21 05:48:44;;;;;;;23.48;15.93;;;5.90;66.90;;;;;;5094724;28;20516;-63
2022/02/21 05:51:10;;;;;;;22.08;16.13;;;6.00;67.00;;;;;;5094930;28;20020;-63
2022/02/21 05:53:39;;;;;;;19.92;15.45;;;6.10;67.50;;;;;;5077833;28;20376;-63
2022/02/21 05:56:04;;;;;;;19.58;14.40;;;6.20;66.70;;;;;;5086162;28;20540;-64
2022/02/21 05:58:30;;;;;;;21.35;14.48;;;6.30;66.80;;;;;;5090999;28;20031;-63
2022/02/21 06:00:56;;;;;;;19.20;13.10;;;6.40;66.70;;;;;;5082073;28;20028;-63
2022/02/21 06:03:21;;;;;;;16.08;12.18;;;6.50;66.30;;;;;;5089558;28;20032;-63
2022/02/21 06:05:47;;;;;;;19.55;12.32;;;6.70;66.00;;;;;;5093963;28;20036;-63
2022/02/21 06:08:13;;;;;;;18.58;13.70;;;6.80;65.80;;;;;;5093833;28;20482;-63
2022/02/21 06:10:39;;;;;;;14.00;11.38;;;7.00;65.70;;;;;;5089351;28;20061;-63
2022/02/21 06:13:05;;;;;;;18.52;13.70;;;7.10;65.50;;;;;;5082675;28;20024;-63
2022/02/21 06:15:31;;;;;;;18.48;11.65;;;7.20;65.00;;;;;;5087614;28;20345;-63
2022/02/21 06:17:58;;;;;;;18.38;12.52;;;7.30;64.80;;;;;;5073223;28;20097;-63
2022/02/21 06:20:25;;;;;;;16.45;11.88;;;7.30;64.40;;;;;;5084652;28;20395;-62
2022/02/21 06:22:51;;;;;;;14.27;10.45;;;7.30;64.20;;;;;;5087480;28;20114;-63
2022/02/21 06:25:16;;;;;;;14.45;10.57;;;7.40;64.00;;;;;;5086911;28;20988;-63
2022/02/21 06:27:42;;;;;;;13.77;11.35;;;7.40;64.00;;;;;;5087857;28;20019;-62
2022/02/21 06:30:08;;;;;;;14.77;11.20;;;7.50;64.00;;;;;;5091384;28;20123;-62
2022/02/21 06:32:35;;;;;;;21.45;13.50;;;7.60;64.20;;;;;;5084764;28;20016;-62
2022/02/21 06:35:01;;;;;;;18.63;12.65;;;7.70;63.90;;;;;;5080181;28;20064;-62
2022/02/21 06:37:26;;;;;;;19.75;14.38;;;7.80;63.70;;;;;;5079313;28;20032;-62
2022/02/21 06:39:52;;;;;;;17.67;12.25;;;7.90;63.40;;;;;;5075330;28;20036;-62
2022/02/21 06:42:18;;;;;;;18.30;12.48;;;8.00;63.00;;;;;;5082757;28;20064;-62
2022/02/21 06:44:44;;;;;;;18.95;13.38;;;8.10;62.90;;;;;;5081441;28;20051;-62
2022/02/21 06:47:10;;;;;;;20.40;14.05;;;8.10;62.70;;;;;;5074902;28;20074;-62
2022/02/21 06:49:35;;;;;;;19.40;13.35;;;8.10;62.60;;;;;;5070182;28;20021;-63
2022/02/21 06:52:01;;;;;;;19.13;13.80;;;8.10;62.50;;;;;;5080316;28;20035;-62
2022/02/21 06:54:27;;;;;;;19.02;11.90;;;8.10;62.30;;;;;;5081685;28;20028;-62
2022/02/21 06:56:53;;;;;;;16.35;11.93;;;8.20;62.40;;;;;;5081666;28;20054;-62
2022/02/21 06:59:18;;;;;;;15.10;11.20;;;8.10;62.00;;;;;;5077065;28;20032;-62
2022/02/21 07:01:44;;;;;;;21.55;12.23;;;8.20;61.90;;;;;;5069194;28;20103;-62
2022/02/21 07:04:10;;;;;;;19.13;11.90;;;8.20;61.80;;;;;;5073854;28;20049;-62
2022/02/21 07:06:36;;;;;;;14.70;11.20;;;8.30;61.90;;;;;;5071573;28;20496;-62
2022/02/21 07:09:05;;;;;;;16.02;11.18;;;8.30;61.80;;;;;;5078870;28;20050;-62
2022/02/21 07:11:31;;;;;;;16.42;11.07;;;8.30;61.50;;;;;;5075659;28;20047;-62
2022/02/21 07:13:56;;;;;;;14.82;10.75;;;8.30;61.40;;;;;;5074604;28;20043;-62
2022/02/21 07:16:22;;;;;;;16.92;11.23;;;8.40;61.40;;;;;;5078754;28;20424;-62
2022/02/21 07:18:48;;;;;;;17.85;10.55;;;8.40;60.90;;;;;;5072143;28;20040;-63
2022/02/21 07:21:14;;;;;;;17.30;12.35;;;8.40;61.00;;;;;;5078013;28;20024;-63
2022/02/21 07:23:40;;;;;;;23.05;11.88;;;8.40;60.90;;;;;;5071510;28;20040;-62
2022/02/21 07:26:05;;;;;;;21.23;11.52;;;8.40;60.90;;;;;;5073198;28;21338;-62
2022/02/21 07:28:31;;;;;;;17.20;11.18;;;8.40;61.00;;;;;;5071116;28;20500;-62
2022/02/21 07:30:57;;;;;;;15.52;10.93;;;8.50;60.80;;;;;;5078092;28;20031;-62
2022/02/21 07:33:23;;;;;;;17.13;11.85;;;8.50;61.00;;;;;;5074565;28;20112;-62
2022/02/21 07:35:49;;;;;;;19.00;12.00;;;8.50;60.90;;;;;;5073842;28;20048;-62
2022/02/21 07:38:14;;;;;;;19.42;12.35;;;8.50;60.80;;;;;;5075817;28;20081;-62
2022/02/21 07:40:40;;;;;;;18.20;12.18;;;8.50;60.70;;;;;;5070684;28;20036;-62
2022/02/21 07:43:06;;;;;;;15.07;10.68;;;8.40;60.80;;;;;;5070079;28;20085;-62
2022/02/21 07:45:32;;;;;;;14.60;10.35;;;8.40;60.70;;;;;;5073014;28;20028;-62
2022/02/21 07:48:01;;;;;;;19.00;9.98;;;8.50;60.90;;;;;;5070665;28;20078;-62
2022/02/21 07:50:30;;;;;;;11.57;9.10;;;8.50;60.90;;;;;;5070844;28;20446;-63
2022/02/21 07:52:56;;;;;;;11.48;8.85;;;8.50;60.80;;;;;;5075118;28;20028;-62
2022/02/21 07:55:22;;;;;;;11.65;8.15;;;8.50;60.70;;;;;;5077277;28;20028;-63
2022/02/21 07:57:48;;;;;;;14.02;8.32;;;8.50;60.80;;;;;;5068879;28;20954;-62
2022/02/21 08:00:17;;;;;;;12.23;8.43;;;8.60;60.90;;;;;;5063306;28;20032;-63
2022/02/21 08:02:43;;;;;;;10.95;8.20;;;8.60;60.90;;;;;;5068966;28;20115;-63
2022/02/21 08:05:09;;;;;;;12.10;8.20;;;8.60;60.90;;;;;;5065846;28;20424;-63
2022/02/21 08:07:36;;;;;;;10.98;7.75;;;8.60;60.90;;;;;;5069152;28;20036;-65
2022/02/21 08:10:03;;;;;;;14.75;8.90;;;8.60;61.10;;;;;;5072555;28;20050;-63
2022/02/21 08:12:29;;;;;;;13.70;9.13;;;8.60;61.00;;;;;;5072829;28;20025;-64
2022/02/21 08:14:55;;;;;;;14.27;8.07;;;8.70;61.00;;;;;;5075352;28;20036;-64
2022/02/21 08:17:21;;;;;;;11.43;7.35;;;8.70;60.90;;;;;;5076379;28;20141;-63
2022/02/21 08:19:47;;;;;;;13.77;7.75;;;8.80;60.60;;;;;;5075109;28;20048;-63
2022/02/21 08:22:12;;;;;;;13.35;7.93;;;8.80;60.40;;;;;;5070770;28;20531;-63
2022/02/21 08:24:38;;;;;;;10.38;6.93;;;8.90;60.60;;;;;;5067779;28;20103;-63
2022/02/21 08:27:04;;;;;;;10.90;8.15;;;8.90;60.40;;;;;;5071885;28;20177;-64
2022/02/21 08:29:32;;;;;;;9.93;7.95;;;9.00;60.50;;;;;;5068717;28;20117;-62
2022/02/21 08:31:58;;;;;;;14.98;9.13;;;9.00;60.30;;;;;;5067949;28;20067;-63
2022/02/21 08:34:24;;;;;;;11.48;8.05;;;9.00;60.30;;;;;;5075592;28;20075;-63
2022/02/21 08:36:50;;;;;;;11.68;7.65;;;9.10;60.30;;;;;;5079014;28;20036;-63
2022/02/21 08:39:16;;;;;;;12.23;8.13;;;9.20;60.20;;;;;;5083013;28;20043;-63
2022/02/21 08:41:43;;;;;;;10.75;7.85;;;9.20;60.00;;;;;;5069401;28;20028;-63
2022/02/21 08:44:08;;;;;;;13.30;8.13;;;9.30;59.90;;;;;;5072352;28;20507;-63
2022/02/21 08:46:34;;;;;;;12.82;7.93;;;9.30;59.80;;;;;;5071342;28;20147;-63
2022/02/21 08:49:00;;;;;;;14.85;8.10;;;9.40;60.00;;;;;;5067816;28;20460;-63
2022/02/21 08:51:26;;;;;;;11.30;8.15;;;9.50;59.70;;;;;;5071408;28;20043;-63
2022/02/21 08:53:52;;;;;;;9.90;7.72;;;9.50;59.50;;;;;;5077537;28;20024;-63
2022/02/21 08:56:18;;;;;;;10.35;7.43;;;9.60;59.60;;;;;;5071718;28;20042;-62
2022/02/21 08:58:44;;;;;;;11.60;6.45;;;9.60;59.50;;;;;;5070846;28;21332;-63
2022/02/21 09:01:09;;;;;;;10.23;7.10;;;9.70;59.40;;;;;;5071395;28;20069;-61
2022/02/21 09:03:35;;;;;;;8.85;6.85;;;9.70;59.20;;;;;;5075361;28;20039;-62
2022/02/21 09:06:01;;;;;;;12.57;7.65;;;9.80;59.20;;;;;;5074388;28;20073;-63
2022/02/21 09:08:31;;;;;;;12.80;6.50;;;9.80;58.90;;;;;;5078093;28;23523;-63
2022/02/21 09:10:57;;;;;;;11.80;6.68;;;9.90;58.90;;;;;;5073721;28;20035;-64
2022/02/21 09:13:22;;;;;;;10.98;6.93;;;9.90;58.60;;;;;;5073899;28;20032;-62
2022/02/21 09:15:48;;;;;;;11.75;6.50;;;10.00;58.70;;;;;;5069110;28;20511;-63
2022/02/21 09:18:14;;;;;;;10.57;7.03;;;10.10;58.80;;;;;;5072607;28;20040;-62
2022/02/21 09:20:40;;;;;;;10.60;6.07;;;10.20;58.40;;;;;;5056855;28;20499;-61
2022/02/21 09:23:06;;;;;;;7.07;5.10;;;10.30;58.00;;;;;;5074739;28;20085;-62
2022/02/21 09:25:32;;;;;;;8.45;5.15;;;10.40;57.80;;;;;;5073591;28;20032;-62
2022/02/21 09:27:58;;;;;;;6.40;4.72;;;10.50;57.50;;;;;;5071732;28;20035;-62
2022/02/21 09:30:24;;;;;;;8.82;4.53;;;10.60;57.30;;;;;;5072181;28;20024;-63
2022/02/21 09:32:50;;;;;;;8.45;4.43;;;10.70;56.90;;;;;;5075422;28;20052;-62
2022/02/21 09:35:16;;;;;;;8.45;4.35;;;10.80;56.80;;;;;;5073674;28;20681;-62
2022/02/21 09:37:42;;;;;;;10.32;4.70;;;10.90;56.60;;;;;;5076665;28;20034;-63
2022/02/21 09:40:10;;;;;;;6.45;4.32;;;11.00;56.40;;;;;;5070173;28;20127;-62
2022/02/21 09:42:42;;;;;;;5.88;4.47;;;11.20;56.40;;;;;;5068616;28;20025;-61
2022/02/21 09:45:08;;;;;;;6.55;4.50;;;11.20;56.20;;;;;;5066715;28;20044;-62
2022/02/21 09:47:35;;;;;;;6.45;4.75;;;11.30;55.90;;;;;;5072021;28;20052;-64
2022/02/21 09:50:01;;;;;;;7.55;3.67;;;11.40;55.60;;;;;;5072644;28;20043;-62
2022/02/21 09:52:28;;;;;;;7.20;4.78;;;11.50;55.40;;;;;;5070956;28;20085;-63
2022/02/21 09:54:55;;;;;;;10.57;4.90;;;11.50;55.30;;;;;;5073699;28;20099;-64
2022/02/21 09:57:21;;;;;;;7.15;4.40;;;11.60;55.10;;;;;;5071737;28;20031;-62
2022/02/21 09:59:48;;;;;;;6.25;3.85;;;11.60;55.00;;;;;;5071158;28;20035;-64
2022/02/21 10:02:19;;;;;;;5.22;4.07;;;11.70;54.80;;;;;;5062462;28;20047;-62
2022/02/21 10:04:45;;;;;;;6.18;3.42;;;11.70;54.60;;;;;;5073469;28;20028;-62
2022/02/21 10:07:11;;;;;;;6.43;3.88;;;11.80;54.60;;;;;;5068667;28;20055;-63
2022/02/21 10:09:42;;;;;;;6.82;4.20;;;11.80;54.40;;;;;;5070913;28;20428;-63
2022/02/21 10:12:22;;;;;;;4.85;3.53;;;11.80;54.40;;;;;;5073076;28;20032;-60
2022/02/21 10:14:47;;;;;;;6.25;3.72;;;11.80;54.40;;;;;;5077142;28;20032;-63
2022/02/21 10:17:15;;;;;;;5.60;3.97;;;11.70;54.00;;;;;;5068365;28;20409;-61
2022/02/21 10:19:42;;;;;;;7.65;3.42;;;11.70;53.90;;;;;;5075042;28;20379;-64
2022/02/21 10:22:12;;;;;;;6.10;3.60;;;11.70;53.60;;;;;;5066469;28;20667;-62
2022/02/21 10:24:43;;;;;;;4.43;3.42;;;11.70;53.60;;;;;;5072066;28;20571;-62
2022/02/21 10:27:24;;;;;;;5.60;3.45;;;11.70;53.70;;;;;;5071178;28;20572;-62
2022/02/21 10:29:54;;;;;;;4.90;3.42;;;11.60;53.60;;;;;;5068894;28;20058;-62
2022/02/21 10:32:23;;;;;;;5.80;3.40;;;11.60;53.60;;;;;;5059227;28;20055;-63
2022/02/21 10:34:50;;;;;;;8.90;3.60;;;11.50;53.30;;;;;;5060283;28;20072;-63
2022/02/21 10:37:25;;;;;;;4.38;3.40;;;11.50;53.60;;;;;;5069824;28;20660;-64
2022/02/21 10:40:13;;;;;;;4.47;3.45;;;11.50;53.50;;;;;;5066740;28;20028;-63
2022/02/21 10:42:41;;;;;;;7.65;4.10;;;11.40;53.60;;;;;;5067838;28;20092;-62
2022/02/21 10:45:17;;;;;;;6.63;4.45;;;11.40;53.70;;;;;;5063381;28;20035;-63
2022/02/21 10:48:04;;;;;;;8.02;4.20;;;11.40;53.60;;;;;;5060911;28;26118;-62
2022/02/21 10:50:32;;;;;;;5.60;3.47;;;11.40;53.70;;;;;;5058455;28;20032;-62
2022/02/21 10:52:59;;;;;;;5.75;3.50;;;11.40;53.70;;;;;;5067230;28;20028;-63
2022/02/21 10:55:32;;;;;;;6.05;3.65;;;11.30;53.80;;;;;;5067015;28;20039;-63
2022/02/21 10:57:58;;;;;;;6.95;3.40;;;11.30;53.90;;;;;;5066799;28;21380;-62
2022/02/21 11:00:24;;;;;;;6.38;3.92;;;11.30;53.90;;;;;;5062850;28;20161;-62
2022/02/21 11:02:50;;;;;;;5.88;3.72;;;11.30;54.00;;;;;;5059074;28;20028;-63
2022/02/21 11:05:15;;;;;;;9.82;3.85;;;11.30;54.00;;;;;;5058231;28;20024;-62
2022/02/21 11:07:44;;;;;;;7.45;4.18;;;11.30;53.80;;;;;;5060867;28;20590;-63
2022/02/21 11:10:11;;;;;;;6.30;3.45;;;11.30;53.50;;;;;;5070886;28;20091;-63
2022/02/21 11:12:42;;;;;;;5.65;3.47;;;11.30;53.70;;;;;;5062204;28;20039;-62
2022/02/21 11:15:08;;;;;;;7.38;3.70;;;11.40;53.50;;;;;;5063161;28;20028;-63
2022/02/21 11:17:37;;;;;;;11.07;4.20;;;11.40;53.50;;;;;;5058737;28;20059;-64
2022/02/21 11:20:04;;;;;;;4.60;3.40;;;11.40;53.50;;;;;;5069668;28;20379;-63
2022/02/21 11:22:31;;;;;;;4.05;2.97;;;11.40;53.30;;;;;;5074556;28;20103;-63
2022/02/21 11:25:15;;;;;;;4.93;3.72;;;11.40;53.20;;;;;;5067238;28;20117;-63
2022/02/21 11:28:03;;;;;;;4.15;3.00;;;11.40;53.20;;;;;;5077705;28;20684;-63
2022/02/21 11:30:30;;;;;;;8.40;3.47;;;11.50;53.30;;;;;;5076556;28;20032;-63
2022/02/21 11:33:08;;;;;;;5.97;3.78;;;11.50;53.50;;;;;;5077301;28;20027;-63
2022/02/21 11:35:37;;;;;;;7.03;3.90;;;11.50;53.60;;;;;;5076884;28;21914;-63
2022/02/21 11:38:15;;;;;;;5.25;3.50;;;11.50;53.60;;;;;;5076277;28;20115;-63
2022/02/21 11:41:09;;;;;;;6.53;3.70;;;11.60;53.80;;;;;;5077835;28;20028;-63
2022/02/21 11:43:36;;;;;;;6.10;3.60;;;11.60;53.60;;;;;;5072519;28;20536;-63
2022/02/21 11:46:06;;;;;;;4.88;3.40;;;11.60;53.70;;;;;;5076726;28;20345;-63
2022/02/21 11:48:59;;;;;;;6.53;4.55;;;11.70;53.60;;;;;;5068703;28;20092;-63
2022/02/21 11:51:36;;;;;;;8.95;4.10;;;11.70;53.50;;;;;;5064140;28;20492;-63
2022/02/21 11:54:11;;;;;;;7.40;4.00;;;11.70;53.60;;;;;;5048162;28;20079;-64
2022/02/21 11:56:49;;;;;;;8.27;3.58;;;11.70;53.60;;;;;;5072042;28;20040;-66
2022/02/21 11:59:25;;;;;;;8.27;3.50;;;11.70;53.70;;;;;;5077968;28;20024;-66
2022/02/21 12:02:07;;;;;;;5.47;3.33;;;11.70;53.50;;;;;;5058028;28;20036;-64
2022/02/21 12:04:53;;;;;;;5.25;3.20;;;11.70;53.50;;;;;;5063715;28;20032;-63
2022/02/21 12:07:35;;;;;;;5.88;3.13;;;11.80;53.50;;;;;;5073024;28;20089;-63
2022/02/21 12:10:24;;;;;;;8.38;3.92;;;11.80;53.50;;;;;;5069546;28;20464;-63
2022/02/21 12:12:52;;;;;;;6.60;4.25;;;11.80;53.50;;;;;;5072461;28;20039;-63
2022/02/21 12:15:19;;;;;;;10.30;4.10;;;11.90;53.60;;;;;;5071896;28;20028;-63
2022/02/21 12:17:45;;;;;;;5.63;3.50;;;11.90;53.40;;;;;;5076009;28;20024;-63
2022/02/21 12:20:32;;;;;;;8.10;3.80;;;11.90;53.30;;;;;;5070163;28;20040;-64
2022/02/21 12:23:06;;;;;;;7.32;3.80;;;12.00;53.40;;;;;;5074537;28;20375;-65
2022/02/21 12:25:39;;;;;;;6.65;4.15;;;12.00;53.50;;;;;;5076418;28;20128;-65
2022/02/21 12:28:25;;;;;;;8.30;4.20;;;12.00;53.60;;;;;;5071575;28;20069;-66
2022/02/21 12:30:57;;;;;;;6.50;4.18;;;12.00;53.40;;;;;;5071641;28;20036;-62
2022/02/21 12:33:31;;;;;;;8.60;4.10;;;12.00;53.50;;;;;;5078545;28;20395;-64
2022/02/21 12:36:05;;;;;;;5.43;3.80;;;12.10;53.60;;;;;;5069617;28;20309;-65
2022/02/21 12:38:38;;;;;;;11.70;10.05;;;12.10;53.60;;;;;;5071026;28;20070;-65
2022/02/21 12:41:09;;;;;;;10.10;6.05;;;12.10;53.70;;;;;;5076649;28;20487;-68
2022/02/21 12:43:58;;;;;;;5.80;4.30;;;12.10;53.40;;;;;;5076068;28;20024;-66